sensor_id;sensor_type;location;lat;lon;timestamp;P1;durP1;ratioP1;P2;durP2;ratioP2
52316;SDS011;38725;41.994;21.458;2022-09-16T00:00:22;26.08;;;11.38;;
52316;SDS011;38725;41.994;21.458;2022-09-16T00:02:50;29.95;;;11.57;;
52316;SDS011;38725;41.994;21.458;2022-09-16T00:05:16;25.50;;;10.55;;
52316;SDS011;38725;41.994;21.458;2022-09-16T00:07:42;26.40;;;11.23;;
52316;SDS011;38725;41.994;21.458;2022-09-16T00:10:08;29.15;;;10.60;;
52316;SDS011;38725;41.994;21.458;2022-09-16T00:12:34;24.60;;;10.63;;
52316;SDS011;38725;41.994;21.458;2022-09-16T00:15:00;26.95;;;10.73;;
52316;SDS011;38725;41.994;21.458;2022-09-16T00:17:26;24.30;;;10.70;;
52316;SDS011;38725;41.994;21.458;2022-09-16T00:19:54;24.02;;;10.35;;
52316;SDS011;38725;41.994;21.458;2022-09-16T00:22:20;33.80;;;11.32;;
52316;SDS011;38725;41.994;21.458;2022-09-16T00:24:49;19.73;;;10.43;;
52316;SDS011;38725;41.994;21.458;2022-09-16T00:27:15;27.95;;;10.63;;
52316;SDS011;38725;41.994;21.458;2022-09-16T00:29:41;24.65;;;10.02;;
52316;SDS011;38725;41.994;21.458;2022-09-16T00:32:07;35.58;;;10.75;;
52316;SDS011;38725;41.994;21.458;2022-09-16T00:34:33;24.67;;;10.35;;
52316;SDS011;38725;41.994;21.458;2022-09-16T00:36:59;25.48;;;9.68;;
52316;SDS011;38725;41.994;21.458;2022-09-16T00:39:27;32.33;;;11.77;;
52316;SDS011;38725;41.994;21.458;2022-09-16T00:41:53;25.42;;;9.32;;
52316;SDS011;38725;41.994;21.458;2022-09-16T00:47:04;27.20;;;9.80;;
52316;SDS011;38725;41.994;21.458;2022-09-16T00:49:30;22.35;;;10.27;;
52316;SDS011;38725;41.994;21.458;2022-09-16T00:51:58;21.73;;;9.43;;
52316;SDS011;38725;41.994;21.458;2022-09-16T00:54:25;20.85;;;9.63;;
52316;SDS011;38725;41.994;21.458;2022-09-16T00:56:53;27.45;;;9.30;;
52316;SDS011;38725;41.994;21.458;2022-09-16T01:01:48;21.08;;;9.55;;
52316;SDS011;38725;41.994;21.458;2022-09-16T01:04:17;22.85;;;9.63;;
52316;SDS011;38725;41.994;21.458;2022-09-16T01:06:44;20.67;;;8.38;;
52316;SDS011;38725;41.994;21.458;2022-09-16T01:09:10;17.27;;;8.32;;
52316;SDS011;38725;41.994;21.458;2022-09-16T01:11:37;22.38;;;10.68;;
52316;SDS011;38725;41.994;21.458;2022-09-16T01:14:03;21.63;;;9.52;;
52316;SDS011;38725;41.994;21.458;2022-09-16T01:16:53;22.10;;;9.60;;
52316;SDS011;38725;41.994;21.458;2022-09-16T01:22:51;20.02;;;9.02;;
52316;SDS011;38725;41.994;21.458;2022-09-16T01:48:43;27.77;;;8.38;;
52316;SDS011;38725;41.994;21.458;2022-09-16T01:51:22;16.65;;;7.72;;
52316;SDS011;38725;41.994;21.458;2022-09-16T01:53:52;19.17;;;8.15;;
52316;SDS011;38725;41.994;21.458;2022-09-16T01:56:29;14.23;;;6.75;;
52316;SDS011;38725;41.994;21.458;2022-09-16T01:59:02;17.40;;;6.97;;
52316;SDS011;38725;41.994;21.458;2022-09-16T02:01:30;18.45;;;6.85;;
52316;SDS011;38725;41.994;21.458;2022-09-16T02:03:59;19.40;;;7.72;;
52316;SDS011;38725;41.994;21.458;2022-09-16T02:06:26;23.67;;;6.95;;
52316;SDS011;38725;41.994;21.458;2022-09-16T02:08:54;18.58;;;7.30;;
52316;SDS011;38725;41.994;21.458;2022-09-16T02:11:21;17.67;;;6.50;;
52316;SDS011;38725;41.994;21.458;2022-09-16T02:13:55;15.75;;;6.72;;
52316;SDS011;38725;41.994;21.458;2022-09-16T02:16:25;14.00;;;6.68;;
52316;SDS011;38725;41.994;21.458;2022-09-16T02:18:55;18.02;;;7.60;;
52316;SDS011;38725;41.994;21.458;2022-09-16T02:21:22;17.73;;;8.68;;
52316;SDS011;38725;41.994;21.458;2022-09-16T02:23:52;15.10;;;7.22;;
52316;SDS011;38725;41.994;21.458;2022-09-16T02:26:20;18.90;;;7.32;;
52316;SDS011;38725;41.994;21.458;2022-09-16T02:28:47;19.60;;;7.20;;
52316;SDS011;38725;41.994;21.458;2022-09-16T02:31:15;19.85;;;6.95;;
52316;SDS011;38725;41.994;21.458;2022-09-16T02:33:44;19.63;;;7.07;;
52316;SDS011;38725;41.994;21.458;2022-09-16T02:36:13;20.35;;;6.40;;
52316;SDS011;38725;41.994;21.458;2022-09-16T02:38:42;18.25;;;6.13;;
52316;SDS011;38725;41.994;21.458;2022-09-16T02:41:10;16.35;;;6.60;;
52316;SDS011;38725;41.994;21.458;2022-09-16T02:43:39;20.80;;;7.15;;
52316;SDS011;38725;41.994;21.458;2022-09-16T02:49:33;14.63;;;7.88;;
52316;SDS011;38725;41.994;21.458;2022-09-16T02:57:09;14.13;;;7.57;;
52316;SDS011;38725;41.994;21.458;2022-09-16T02:59:36;13.82;;;6.90;;
52316;SDS011;38725;41.994;21.458;2022-09-16T03:02:02;13.85;;;7.55;;
52316;SDS011;38725;41.994;21.458;2022-09-16T03:04:28;17.73;;;7.00;;
52316;SDS011;38725;41.994;21.458;2022-09-16T03:06:55;14.10;;;6.63;;
52316;SDS011;38725;41.994;21.458;2022-09-16T03:09:22;12.23;;;6.75;;
52316;SDS011;38725;41.994;21.458;2022-09-16T03:20:12;13.55;;;6.75;;
52316;SDS011;38725;41.994;21.458;2022-09-16T03:28:14;16.33;;;7.10;;
52316;SDS011;38725;41.994;21.458;2022-09-16T03:30:49;12.77;;;7.28;;
52316;SDS011;38725;41.994;21.458;2022-09-16T03:33:21;18.23;;;7.30;;
52316;SDS011;38725;41.994;21.458;2022-09-16T03:35:49;14.07;;;6.60;;
52316;SDS011;38725;41.994;21.458;2022-09-16T03:38:17;17.65;;;7.50;;
52316;SDS011;38725;41.994;21.458;2022-09-16T03:40:45;13.93;;;6.47;;
52316;SDS011;38725;41.994;21.458;2022-09-16T03:43:12;16.20;;;6.90;;
52316;SDS011;38725;41.994;21.458;2022-09-16T03:45:40;16.38;;;7.40;;
52316;SDS011;38725;41.994;21.458;2022-09-16T03:48:07;10.15;;;6.20;;
52316;SDS011;38725;41.994;21.458;2022-09-16T03:50:33;12.27;;;6.45;;
52316;SDS011;38725;41.994;21.458;2022-09-16T03:53:00;17.58;;;7.18;;
52316;SDS011;38725;41.994;21.458;2022-09-16T03:55:26;15.73;;;6.57;;
52316;SDS011;38725;41.994;21.458;2022-09-16T03:57:52;16.05;;;7.05;;
52316;SDS011;38725;41.994;21.458;2022-09-16T04:00:18;19.90;;;7.07;;
52316;SDS011;38725;41.994;21.458;2022-09-16T04:02:44;17.90;;;7.00;;
52316;SDS011;38725;41.994;21.458;2022-09-16T04:05:10;23.67;;;7.88;;
52316;SDS011;38725;41.994;21.458;2022-09-16T04:07:37;16.00;;;6.75;;
52316;SDS011;38725;41.994;21.458;2022-09-16T04:10:03;18.48;;;6.78;;
52316;SDS011;38725;41.994;21.458;2022-09-16T04:12:30;16.45;;;7.55;;
52316;SDS011;38725;41.994;21.458;2022-09-16T04:14:56;13.85;;;6.85;;
52316;SDS011;38725;41.994;21.458;2022-09-16T04:17:22;13.70;;;6.88;;
52316;SDS011;38725;41.994;21.458;2022-09-16T04:19:48;16.80;;;7.03;;
52316;SDS011;38725;41.994;21.458;2022-09-16T04:22:15;19.52;;;8.63;;
52316;SDS011;38725;41.994;21.458;2022-09-16T04:24:41;20.48;;;7.32;;
52316;SDS011;38725;41.994;21.458;2022-09-16T04:27:07;19.05;;;7.57;;
52316;SDS011;38725;41.994;21.458;2022-09-16T04:29:34;24.75;;;8.13;;
52316;SDS011;38725;41.994;21.458;2022-09-16T04:32:00;19.95;;;7.60;;
52316;SDS011;38725;41.994;21.458;2022-09-16T04:34:27;22.80;;;8.43;;
52316;SDS011;38725;41.994;21.458;2022-09-16T04:36:53;25.70;;;7.75;;
52316;SDS011;38725;41.994;21.458;2022-09-16T04:39:19;17.65;;;7.22;;
52316;SDS011;38725;41.994;21.458;2022-09-16T04:41:45;15.38;;;7.28;;
52316;SDS011;38725;41.994;21.458;2022-09-16T04:44:11;20.63;;;7.55;;
52316;SDS011;38725;41.994;21.458;2022-09-16T04:46:37;16.90;;;6.70;;
52316;SDS011;38725;41.994;21.458;2022-09-16T04:49:03;17.48;;;6.20;;
52316;SDS011;38725;41.994;21.458;2022-09-16T04:51:29;16.48;;;6.90;;
52316;SDS011;38725;41.994;21.458;2022-09-16T04:53:57;20.63;;;7.03;;
52316;SDS011;38725;41.994;21.458;2022-09-16T04:56:24;18.52;;;6.18;;
52316;SDS011;38725;41.994;21.458;2022-09-16T04:58:51;16.45;;;6.25;;
52316;SDS011;38725;41.994;21.458;2022-09-16T05:01:18;12.35;;;5.18;;
52316;SDS011;38725;41.994;21.458;2022-09-16T05:03:46;16.25;;;5.63;;
52316;SDS011;38725;41.994;21.458;2022-09-16T05:06:13;14.93;;;5.32;;
52316;SDS011;38725;41.994;21.458;2022-09-16T05:08:39;24.75;;;5.55;;
52316;SDS011;38725;41.994;21.458;2022-09-16T05:11:07;17.25;;;6.03;;
52316;SDS011;38725;41.994;21.458;2022-09-16T05:13:34;19.73;;;5.43;;
52316;SDS011;38725;41.994;21.458;2022-09-16T05:16:01;14.75;;;5.05;;
52316;SDS011;38725;41.994;21.458;2022-09-16T05:18:27;17.55;;;5.00;;
52316;SDS011;38725;41.994;21.458;2022-09-16T05:20:57;17.08;;;5.72;;
52316;SDS011;38725;41.994;21.458;2022-09-16T05:23:23;22.33;;;5.43;;
52316;SDS011;38725;41.994;21.458;2022-09-16T05:25:50;16.92;;;6.32;;
52316;SDS011;38725;41.994;21.458;2022-09-16T05:28:16;14.65;;;5.53;;
52316;SDS011;38725;41.994;21.458;2022-09-16T05:30:42;17.92;;;5.70;;
52316;SDS011;38725;41.994;21.458;2022-09-16T05:33:08;18.73;;;5.75;;
52316;SDS011;38725;41.994;21.458;2022-09-16T05:35:34;14.35;;;6.00;;
52316;SDS011;38725;41.994;21.458;2022-09-16T05:38:00;16.80;;;6.68;;
52316;SDS011;38725;41.994;21.458;2022-09-16T05:40:26;14.95;;;5.97;;
52316;SDS011;38725;41.994;21.458;2022-09-16T05:42:53;21.63;;;6.32;;
52316;SDS011;38725;41.994;21.458;2022-09-16T05:45:19;24.45;;;6.82;;
52316;SDS011;38725;41.994;21.458;2022-09-16T05:47:48;21.95;;;6.82;;
52316;SDS011;38725;41.994;21.458;2022-09-16T05:50:14;21.08;;;6.20;;
52316;SDS011;38725;41.994;21.458;2022-09-16T05:52:41;16.58;;;6.82;;
52316;SDS011;38725;41.994;21.458;2022-09-16T05:55:07;18.90;;;6.40;;
52316;SDS011;38725;41.994;21.458;2022-09-16T05:57:34;18.10;;;6.47;;
52316;SDS011;38725;41.994;21.458;2022-09-16T06:00:01;21.17;;;5.93;;
52316;SDS011;38725;41.994;21.458;2022-09-16T06:02:27;25.73;;;6.63;;
52316;SDS011;38725;41.994;21.458;2022-09-16T06:04:53;20.58;;;6.88;;
52316;SDS011;38725;41.994;21.458;2022-09-16T06:07:19;16.20;;;5.95;;
52316;SDS011;38725;41.994;21.458;2022-09-16T06:09:45;21.85;;;5.68;;
52316;SDS011;38725;41.994;21.458;2022-09-16T06:12:11;23.20;;;6.00;;
52316;SDS011;38725;41.994;21.458;2022-09-16T06:14:37;24.02;;;5.95;;
52316;SDS011;38725;41.994;21.458;2022-09-16T06:17:03;18.67;;;5.13;;
52316;SDS011;38725;41.994;21.458;2022-09-16T06:19:30;23.13;;;5.97;;
52316;SDS011;38725;41.994;21.458;2022-09-16T06:21:56;15.25;;;4.22;;
52316;SDS011;38725;41.994;21.458;2022-09-16T06:24:22;14.05;;;4.85;;
52316;SDS011;38725;41.994;21.458;2022-09-16T06:26:48;14.90;;;4.82;;
52316;SDS011;38725;41.994;21.458;2022-09-16T06:29:14;15.05;;;4.00;;
52316;SDS011;38725;41.994;21.458;2022-09-16T06:31:41;12.68;;;4.10;;
52316;SDS011;38725;41.994;21.458;2022-09-16T06:34:09;14.40;;;4.60;;
52316;SDS011;38725;41.994;21.458;2022-09-16T06:36:37;15.07;;;4.90;;
52316;SDS011;38725;41.994;21.458;2022-09-16T06:39:04;14.23;;;4.90;;
52316;SDS011;38725;41.994;21.458;2022-09-16T06:41:31;24.27;;;5.55;;
52316;SDS011;38725;41.994;21.458;2022-09-16T06:44:00;14.65;;;4.47;;
52316;SDS011;38725;41.994;21.458;2022-09-16T06:46:27;18.48;;;6.45;;
52316;SDS011;38725;41.994;21.458;2022-09-16T06:48:54;18.40;;;5.82;;
52316;SDS011;38725;41.994;21.458;2022-09-16T06:51:22;12.50;;;4.68;;
52316;SDS011;38725;41.994;21.458;2022-09-16T06:53:49;12.35;;;4.47;;
52316;SDS011;38725;41.994;21.458;2022-09-16T06:56:16;11.95;;;3.97;;
52316;SDS011;38725;41.994;21.458;2022-09-16T06:58:43;13.75;;;4.68;;
52316;SDS011;38725;41.994;21.458;2022-09-16T07:01:12;10.13;;;3.90;;
52316;SDS011;38725;41.994;21.458;2022-09-16T07:03:40;10.13;;;4.03;;
52316;SDS011;38725;41.994;21.458;2022-09-16T07:06:06;10.30;;;4.28;;
52316;SDS011;38725;41.994;21.458;2022-09-16T07:08:33;10.30;;;3.95;;
52316;SDS011;38725;41.994;21.458;2022-09-16T07:11:04;15.43;;;4.30;;
52316;SDS011;38725;41.994;21.458;2022-09-16T07:13:30;21.88;;;5.50;;
52316;SDS011;38725;41.994;21.458;2022-09-16T07:16:00;18.27;;;5.18;;
52316;SDS011;38725;41.994;21.458;2022-09-16T07:18:27;11.20;;;4.68;;
52316;SDS011;38725;41.994;21.458;2022-09-16T07:21:04;10.00;;;4.03;;
52316;SDS011;38725;41.994;21.458;2022-09-16T07:23:30;12.57;;;3.88;;
52316;SDS011;38725;41.994;21.458;2022-09-16T07:28:32;12.70;;;5.00;;
52316;SDS011;38725;41.994;21.458;2022-09-16T07:31:01;23.42;;;4.75;;
52316;SDS011;38725;41.994;21.458;2022-09-16T07:33:28;11.07;;;4.05;;
52316;SDS011;38725;41.994;21.458;2022-09-16T07:36:00;12.38;;;4.28;;
52316;SDS011;38725;41.994;21.458;2022-09-16T07:38:27;14.90;;;4.28;;
52316;SDS011;38725;41.994;21.458;2022-09-16T07:40:54;16.27;;;4.40;;
52316;SDS011;38725;41.994;21.458;2022-09-16T07:43:20;10.52;;;3.70;;
52316;SDS011;38725;41.994;21.458;2022-09-16T07:45:46;12.57;;;4.38;;
52316;SDS011;38725;41.994;21.458;2022-09-16T07:48:12;11.25;;;3.70;;
52316;SDS011;38725;41.994;21.458;2022-09-16T07:50:38;18.52;;;4.45;;
52316;SDS011;38725;41.994;21.458;2022-09-16T07:53:04;7.38;;;3.35;;
52316;SDS011;38725;41.994;21.458;2022-09-16T07:55:30;12.35;;;3.97;;
52316;SDS011;38725;41.994;21.458;2022-09-16T07:57:56;9.00;;;4.00;;
52316;SDS011;38725;41.994;21.458;2022-09-16T08:00:22;8.57;;;3.45;;
52316;SDS011;38725;41.994;21.458;2022-09-16T08:02:54;11.23;;;3.65;;
52316;SDS011;38725;41.994;21.458;2022-09-16T08:05:20;11.88;;;3.70;;
52316;SDS011;38725;41.994;21.458;2022-09-16T08:07:46;8.77;;;3.40;;
52316;SDS011;38725;41.994;21.458;2022-09-16T08:10:12;12.77;;;3.28;;
52316;SDS011;38725;41.994;21.458;2022-09-16T08:12:39;8.40;;;3.33;;
52316;SDS011;38725;41.994;21.458;2022-09-16T08:15:05;7.28;;;3.58;;
52316;SDS011;38725;41.994;21.458;2022-09-16T08:17:31;16.73;;;3.30;;
52316;SDS011;38725;41.994;21.458;2022-09-16T08:19:57;11.60;;;3.45;;
52316;SDS011;38725;41.994;21.458;2022-09-16T08:22:24;28.08;;;4.30;;
52316;SDS011;38725;41.994;21.458;2022-09-16T08:24:50;9.85;;;3.42;;
52316;SDS011;38725;41.994;21.458;2022-09-16T08:27:16;7.90;;;3.58;;
52316;SDS011;38725;41.994;21.458;2022-09-16T08:29:42;8.80;;;3.42;;
52316;SDS011;38725;41.994;21.458;2022-09-16T08:32:08;7.88;;;3.00;;
52316;SDS011;38725;41.994;21.458;2022-09-16T08:34:34;8.07;;;3.42;;
52316;SDS011;38725;41.994;21.458;2022-09-16T08:37:00;7.38;;;3.10;;
52316;SDS011;38725;41.994;21.458;2022-09-16T08:39:26;18.50;;;5.60;;
52316;SDS011;38725;41.994;21.458;2022-09-16T08:47:55;15.70;;;4.80;;
52316;SDS011;38725;41.994;21.458;2022-09-16T08:49:52;13.52;;;4.32;;
52316;SDS011;38725;41.994;21.458;2022-09-16T08:54:50;16.65;;;5.20;;
52316;SDS011;38725;41.994;21.458;2022-09-16T08:57:17;17.23;;;5.93;;
52316;SDS011;38725;41.994;21.458;2022-09-16T08:59:50;14.80;;;6.13;;
52316;SDS011;38725;41.994;21.458;2022-09-16T09:04:46;21.38;;;6.57;;
52316;SDS011;38725;41.994;21.458;2022-09-16T09:10:45;22.70;;;4.60;;
52316;SDS011;38725;41.994;21.458;2022-09-16T09:12:38;29.65;;;5.57;;
52316;SDS011;38725;41.994;21.458;2022-09-16T09:17:40;8.68;;;3.15;;
52316;SDS011;38725;41.994;21.458;2022-09-16T09:31:09;11.75;;;2.95;;
52316;SDS011;38725;41.994;21.458;2022-09-16T09:33:44;5.05;;;2.83;;
52316;SDS011;38725;41.994;21.458;2022-09-16T09:36:47;9.00;;;3.33;;
52316;SDS011;38725;41.994;21.458;2022-09-16T09:46:25;8.27;;;3.17;;
52316;SDS011;38725;41.994;21.458;2022-09-16T09:48:59;8.77;;;2.70;;
52316;SDS011;38725;41.994;21.458;2022-09-16T09:53:54;5.55;;;2.17;;
52316;SDS011;38725;41.994;21.458;2022-09-16T09:58:50;7.72;;;2.33;;
52316;SDS011;38725;41.994;21.458;2022-09-16T10:01:20;5.75;;;1.80;;
52316;SDS011;38725;41.994;21.458;2022-09-16T10:03:47;4.65;;;1.40;;
52316;SDS011;38725;41.994;21.458;2022-09-16T10:06:13;4.68;;;1.60;;
52316;SDS011;38725;41.994;21.458;2022-09-16T10:08:50;6.53;;;1.23;;
52316;SDS011;38725;41.994;21.458;2022-09-16T10:11:17;4.03;;;1.23;;
52316;SDS011;38725;41.994;21.458;2022-09-16T10:13:50;6.78;;;1.77;;
52316;SDS011;38725;41.994;21.458;2022-09-16T10:16:18;4.97;;;1.17;;
52316;SDS011;38725;41.994;21.458;2022-09-16T10:18:52;6.90;;;1.05;;
52316;SDS011;38725;41.994;21.458;2022-09-16T10:21:19;6.38;;;1.30;;
52316;SDS011;38725;41.994;21.458;2022-09-16T10:23:52;3.45;;;1.27;;
52316;SDS011;38725;41.994;21.458;2022-09-16T10:26:20;7.28;;;3.28;;
52316;SDS011;38725;41.994;21.458;2022-09-16T10:29:20;8.02;;;1.95;;
52316;SDS011;38725;41.994;21.458;2022-09-16T10:31:39;3.65;;;1.17;;
52316;SDS011;38725;41.994;21.458;2022-09-16T10:34:51;2.72;;;1.15;;
52316;SDS011;38725;41.994;21.458;2022-09-16T10:37:03;5.65;;;1.27;;
52316;SDS011;38725;41.994;21.458;2022-09-16T10:39:30;4.95;;;1.90;;
52316;SDS011;38725;41.994;21.458;2022-09-16T10:41:56;5.35;;;1.10;;
52316;SDS011;38725;41.994;21.458;2022-09-16T10:44:24;3.63;;;1.42;;
52316;SDS011;38725;41.994;21.458;2022-09-16T10:46:52;4.78;;;1.30;;
52316;SDS011;38725;41.994;21.458;2022-09-16T10:49:20;3.15;;;1.40;;
52316;SDS011;38725;41.994;21.458;2022-09-16T10:51:47;3.55;;;1.40;;
52316;SDS011;38725;41.994;21.458;2022-09-16T10:54:24;2.33;;;1.10;;
52316;SDS011;38725;41.994;21.458;2022-09-16T10:56:52;6.88;;;1.40;;
52316;SDS011;38725;41.994;21.458;2022-09-16T10:59:18;3.38;;;1.30;;
52316;SDS011;38725;41.994;21.458;2022-09-16T11:07:14;9.27;;;3.13;;
52316;SDS011;38725;41.994;21.458;2022-09-16T11:09:58;4.28;;;1.90;;
52316;SDS011;38725;41.994;21.458;2022-09-16T11:25:28;6.63;;;2.60;;
52316;SDS011;38725;41.994;21.458;2022-09-16T11:30:36;10.07;;;2.80;;
52316;SDS011;38725;41.994;21.458;2022-09-16T11:38:10;8.82;;;4.30;;
52316;SDS011;38725;41.994;21.458;2022-09-16T11:45:44;7.90;;;2.92;;
52316;SDS011;38725;41.994;21.458;2022-09-16T11:55:53;13.77;;;4.50;;
52316;SDS011;38725;41.994;21.458;2022-09-16T11:58:38;14.85;;;4.47;;
52316;SDS011;38725;41.994;21.458;2022-09-16T12:03:54;22.40;;;6.43;;
52316;SDS011;38725;41.994;21.458;2022-09-16T12:06:23;16.90;;;5.25;;
52316;SDS011;38725;41.994;21.458;2022-09-16T12:08:58;12.40;;;4.63;;
52316;SDS011;38725;41.994;21.458;2022-09-16T12:11:38;12.70;;;4.95;;
52316;SDS011;38725;41.994;21.458;2022-09-16T12:14:15;13.52;;;4.32;;
52316;SDS011;38725;41.994;21.458;2022-09-16T12:16:46;16.13;;;4.53;;
52316;SDS011;38725;41.994;21.458;2022-09-16T12:19:16;8.95;;;3.83;;
52316;SDS011;38725;41.994;21.458;2022-09-16T12:21:51;11.30;;;3.67;;
52316;SDS011;38725;41.994;21.458;2022-09-16T12:24:41;6.95;;;3.65;;
52316;SDS011;38725;41.994;21.458;2022-09-16T12:32:21;5.45;;;3.10;;
52316;SDS011;38725;41.994;21.458;2022-09-16T12:39:40;9.20;;;3.25;;
52316;SDS011;38725;41.994;21.458;2022-09-16T12:44:55;4.28;;;2.42;;
52316;SDS011;38725;41.994;21.458;2022-09-16T12:47:43;8.25;;;2.53;;
52316;SDS011;38725;41.994;21.458;2022-09-16T13:03:08;7.55;;;2.15;;
52316;SDS011;38725;41.994;21.458;2022-09-16T13:05:35;6.05;;;2.10;;
52316;SDS011;38725;41.994;21.458;2022-09-16T13:08:13;8.20;;;2.60;;
52316;SDS011;38725;41.994;21.458;2022-09-16T13:10:43;5.38;;;2.35;;
52316;SDS011;38725;41.994;21.458;2022-09-16T13:13:17;7.30;;;2.90;;
52316;SDS011;38725;41.994;21.458;2022-09-16T13:15:53;7.57;;;2.50;;
52316;SDS011;38725;41.994;21.458;2022-09-16T13:18:23;9.02;;;3.13;;
52316;SDS011;38725;41.994;21.458;2022-09-16T13:21:00;7.38;;;2.78;;
52316;SDS011;38725;41.994;21.458;2022-09-16T13:23:28;6.55;;;3.00;;
52316;SDS011;38725;41.994;21.458;2022-09-16T13:26:00;9.30;;;3.03;;
52316;SDS011;38725;41.994;21.458;2022-09-16T13:28:42;7.30;;;2.05;;
52316;SDS011;38725;41.994;21.458;2022-09-16T13:34:15;8.98;;;2.17;;
52316;SDS011;38725;41.994;21.458;2022-09-16T13:36:34;5.68;;;1.90;;
52316;SDS011;38725;41.994;21.458;2022-09-16T13:39:04;4.32;;;1.90;;
52316;SDS011;38725;41.994;21.458;2022-09-16T13:43:57;4.93;;;2.00;;
52316;SDS011;38725;41.994;21.458;2022-09-16T13:46:28;8.93;;;2.05;;
52316;SDS011;38725;41.994;21.458;2022-09-16T13:51:42;3.38;;;1.67;;
52316;SDS011;38725;41.994;21.458;2022-09-16T14:12:37;4.38;;;1.80;;
52316;SDS011;38725;41.994;21.458;2022-09-16T14:17:52;8.02;;;1.77;;
52316;SDS011;38725;41.994;21.458;2022-09-16T14:20:17;10.43;;;1.80;;
52316;SDS011;38725;41.994;21.458;2022-09-16T14:22:44;8.25;;;1.77;;
52316;SDS011;38725;41.994;21.458;2022-09-16T14:25:23;4.53;;;1.50;;
52316;SDS011;38725;41.994;21.458;2022-09-16T14:27:50;5.47;;;1.38;;
52316;SDS011;38725;41.994;21.458;2022-09-16T14:30:16;5.95;;;1.80;;
52316;SDS011;38725;41.994;21.458;2022-09-16T14:32:43;5.30;;;1.85;;
52316;SDS011;38725;41.994;21.458;2022-09-16T14:35:11;9.80;;;1.85;;
52316;SDS011;38725;41.994;21.458;2022-09-16T14:37:40;4.03;;;1.40;;
52316;SDS011;38725;41.994;21.458;2022-09-16T14:40:10;5.75;;;1.48;;
52316;SDS011;38725;41.994;21.458;2022-09-16T14:42:38;6.30;;;1.27;;
52316;SDS011;38725;41.994;21.458;2022-09-16T14:45:12;3.20;;;1.40;;
52316;SDS011;38725;41.994;21.458;2022-09-16T14:47:40;5.70;;;1.75;;
52316;SDS011;38725;41.994;21.458;2022-09-16T14:50:07;3.65;;;1.60;;
52316;SDS011;38725;41.994;21.458;2022-09-16T14:52:36;3.65;;;1.45;;
52316;SDS011;38725;41.994;21.458;2022-09-16T14:58:00;3.08;;;1.38;;
52316;SDS011;38725;41.994;21.458;2022-09-16T15:00:27;3.20;;;1.48;;
52316;SDS011;38725;41.994;21.458;2022-09-16T15:02:56;8.38;;;1.52;;
52316;SDS011;38725;41.994;21.458;2022-09-16T15:05:32;5.57;;;1.80;;
52316;SDS011;38725;41.994;21.458;2022-09-16T15:08:06;5.32;;;2.10;;
52316;SDS011;38725;41.994;21.458;2022-09-16T15:10:33;6.07;;;1.50;;
52316;SDS011;38725;41.994;21.458;2022-09-16T15:13:00;4.85;;;1.85;;
52316;SDS011;38725;41.994;21.458;2022-09-16T15:15:28;4.65;;;1.73;;
52316;SDS011;38725;41.994;21.458;2022-09-16T15:20:23;4.28;;;1.40;;
52316;SDS011;38725;41.994;21.458;2022-09-16T15:22:49;3.88;;;2.10;;
52316;SDS011;38725;41.994;21.458;2022-09-16T15:25:26;7.95;;;1.85;;
52316;SDS011;38725;41.994;21.458;2022-09-16T15:28:03;4.78;;;1.67;;
52316;SDS011;38725;41.994;21.458;2022-09-16T15:30:29;3.42;;;2.00;;
52316;SDS011;38725;41.994;21.458;2022-09-16T15:32:55;4.35;;;1.98;;
52316;SDS011;38725;41.994;21.458;2022-09-16T15:35:25;10.57;;;2.40;;
52316;SDS011;38725;41.994;21.458;2022-09-16T15:37:53;6.53;;;1.50;;
52316;SDS011;38725;41.994;21.458;2022-09-16T15:40:28;5.82;;;2.03;;
52316;SDS011;38725;41.994;21.458;2022-09-16T15:43:02;6.43;;;1.95;;
52316;SDS011;38725;41.994;21.458;2022-09-16T15:45:29;13.60;;;2.03;;
52316;SDS011;38725;41.994;21.458;2022-09-16T15:48:00;9.60;;;2.30;;
52316;SDS011;38725;41.994;21.458;2022-09-16T15:50:27;6.25;;;1.90;;
52316;SDS011;38725;41.994;21.458;2022-09-16T15:55:29;8.25;;;2.05;;
52316;SDS011;38725;41.994;21.458;2022-09-16T15:58:01;5.20;;;1.70;;
52316;SDS011;38725;41.994;21.458;2022-09-16T16:00:29;8.07;;;2.13;;
52316;SDS011;38725;41.994;21.458;2022-09-16T16:03:17;7.28;;;3.58;;
52316;SDS011;38725;41.994;21.458;2022-09-16T16:05:52;13.57;;;2.67;;
52316;SDS011;38725;41.994;21.458;2022-09-16T16:11:08;14.02;;;3.08;;
52316;SDS011;38725;41.994;21.458;2022-09-16T16:13:35;7.68;;;2.88;;
52316;SDS011;38725;41.994;21.458;2022-09-16T16:16:01;6.30;;;2.70;;
52316;SDS011;38725;41.994;21.458;2022-09-16T16:18:30;5.78;;;2.80;;
52316;SDS011;38725;41.994;21.458;2022-09-16T16:20:58;6.22;;;2.58;;
52316;SDS011;38725;41.994;21.458;2022-09-16T16:23:25;8.98;;;2.63;;
52316;SDS011;38725;41.994;21.458;2022-09-16T16:25:52;7.90;;;2.60;;
52316;SDS011;38725;41.994;21.458;2022-09-16T16:28:18;8.00;;;2.78;;
52316;SDS011;38725;41.994;21.458;2022-09-16T16:30:44;8.10;;;3.22;;
52316;SDS011;38725;41.994;21.458;2022-09-16T16:33:10;7.07;;;2.70;;
52316;SDS011;38725;41.994;21.458;2022-09-16T16:35:36;7.90;;;2.63;;
52316;SDS011;38725;41.994;21.458;2022-09-16T16:38:02;7.82;;;2.97;;
52316;SDS011;38725;41.994;21.458;2022-09-16T16:40:28;10.48;;;3.00;;
52316;SDS011;38725;41.994;21.458;2022-09-16T16:42:54;8.20;;;3.40;;
52316;SDS011;38725;41.994;21.458;2022-09-16T16:45:20;11.68;;;3.00;;
52316;SDS011;38725;41.994;21.458;2022-09-16T16:47:46;8.73;;;3.00;;
52316;SDS011;38725;41.994;21.458;2022-09-16T16:50:13;10.98;;;3.50;;
52316;SDS011;38725;41.994;21.458;2022-09-16T16:52:39;7.22;;;3.05;;
52316;SDS011;38725;41.994;21.458;2022-09-16T16:55:05;7.70;;;2.85;;
52316;SDS011;38725;41.994;21.458;2022-09-16T16:57:31;7.07;;;2.90;;
52316;SDS011;38725;41.994;21.458;2022-09-16T16:59:57;6.57;;;2.97;;
52316;SDS011;38725;41.994;21.458;2022-09-16T17:02:23;8.00;;;2.83;;
52316;SDS011;38725;41.994;21.458;2022-09-16T17:04:50;10.82;;;3.80;;
52316;SDS011;38725;41.994;21.458;2022-09-16T17:07:16;9.20;;;2.65;;
52316;SDS011;38725;41.994;21.458;2022-09-16T17:09:42;7.72;;;2.67;;
52316;SDS011;38725;41.994;21.458;2022-09-16T17:12:09;10.95;;;2.72;;
52316;SDS011;38725;41.994;21.458;2022-09-16T17:14:36;10.70;;;3.10;;
52316;SDS011;38725;41.994;21.458;2022-09-16T17:17:02;6.50;;;2.65;;
52316;SDS011;38725;41.994;21.458;2022-09-16T17:19:28;7.85;;;3.17;;
52316;SDS011;38725;41.994;21.458;2022-09-16T17:21:56;9.63;;;3.25;;
52316;SDS011;38725;41.994;21.458;2022-09-16T17:24:22;8.05;;;2.53;;
52316;SDS011;38725;41.994;21.458;2022-09-16T17:26:48;8.23;;;2.97;;
52316;SDS011;38725;41.994;21.458;2022-09-16T17:29:14;4.90;;;2.63;;
52316;SDS011;38725;41.994;21.458;2022-09-16T17:31:41;7.53;;;3.03;;
52316;SDS011;38725;41.994;21.458;2022-09-16T17:34:08;7.47;;;2.63;;
52316;SDS011;38725;41.994;21.458;2022-09-16T17:36:35;11.00;;;3.08;;
52316;SDS011;38725;41.994;21.458;2022-09-16T17:39:05;6.97;;;2.75;;
52316;SDS011;38725;41.994;21.458;2022-09-16T17:41:32;9.98;;;2.72;;
52316;SDS011;38725;41.994;21.458;2022-09-16T17:44:02;7.10;;;2.53;;
52316;SDS011;38725;41.994;21.458;2022-09-16T17:46:28;8.48;;;2.47;;
52316;SDS011;38725;41.994;21.458;2022-09-16T17:49:14;6.45;;;2.75;;
52316;SDS011;38725;41.994;21.458;2022-09-16T17:51:40;5.75;;;2.72;;
52316;SDS011;38725;41.994;21.458;2022-09-16T17:54:06;6.63;;;2.78;;
52316;SDS011;38725;41.994;21.458;2022-09-16T17:56:33;5.53;;;2.30;;